Terminal Aerodrome Forecast
Issued by NWS Amarillo, TX

Home | Current Version | Previous Version | Text Only | Print | Product List | Glossary On
Versions: 1 2 3 4 5 6 7 8 9 10 11 12 13 14 15 16 17 18 19 20
993
FTUS44 KAMA 250224 AAB
TAFAMA
TAF AMD
KAMA 250224Z 2502/2524 01020G30KT P6SM BKN020
     FM250500 36020KT 6SM -SHRA OVC010
     FM251200 35015KT P6SM BKN050
     FM251600 35015G25KT P6SM SKC=

USA.gov is the U.S. government's official web portal to all federal, state and local government web resources and services.